Terminal Aerodrome Forecast
Issued by NWS

Home | Current Version | Previous Version | Text Only | Print | Product List | Glossary On
Versions: 1 2 3 4 5 6 7 8 9 10 11 12 13 14 15 16 17 18 19 20 21 22 23 24 25 26 27 28 29 30 31 32 33 34 35 36 37 38 39 40 41 42 43 44 45 46 47 48
000
FTUS43 KMKX 281722
TAFUES
TAF
KUES 281722Z 2818/2918 20007KT P6SM BKN100
     FM282300 14006KT P6SM -RA OVC090
     FM290300 12006KT P6SM SHRA OVC080
     FM290600 13005KT 3SM SHRA BR OVC060
     FM290900 15006KT 5SM SHRA BR OVC020
     FM291000 15006KT 5SM SHRA BR OVC015
     FM291200 15006KT 4SM SHRA BR OVC008=

USA.gov is the U.S. government's official web portal to all federal, state and local government web resources and services.